createdAt,value
2023-05-10T00:08:12.638Z,77895.94
2023-05-10T00:18:15.741Z,77886.94
2023-05-10T00:28:20.167Z,77864.63
2023-05-10T00:38:23.401Z,77853.22
2023-05-10T00:48:27.812Z,77862.22
2023-05-10T00:58:31.956Z,77867.94
2023-05-10T01:08:36.339Z,77868.34
2023-05-10T01:18:42.540Z,77881.38
2023-05-10T01:29:16.035Z,77892.06
2023-05-10T01:39:26.763Z,77895.34
2023-05-10T01:49:35.062Z,77903.38
2023-05-10T01:59:42.460Z,77898.63
2023-05-10T02:09:48.513Z,77905.34
2023-05-10T02:19:54.204Z,77896.06
2023-05-10T02:29:58.553Z,77910.50
2023-05-10T02:40:05.775Z,77913.22
2023-05-10T02:50:09.607Z,77913.94
2023-05-10T03:00:14.587Z,77897.19
2023-05-10T03:10:18.053Z,77898.78
2023-05-10T03:20:31.310Z,77898.22
2023-05-10T03:30:36.719Z,77893.66
2023-05-10T03:40:41.727Z,77898.22
2023-05-10T03:50:45.167Z,77892.22
2023-05-10T04:00:49.564Z,77892.06
2023-05-10T04:10:52.576Z,77899.63
2023-05-10T04:20:56.949Z,77898.78
2023-05-10T04:31:03.751Z,77879.50
2023-05-10T04:41:08.742Z,77875.91
2023-05-10T04:51:11.707Z,77863.22
2023-05-10T05:01:16.121Z,77864.63
2023-05-10T05:11:19.591Z,77857.09
2023-05-10T05:21:25.006Z,77882.94
2023-05-10T05:31:28.191Z,77878.09
2023-05-10T05:41:32.839Z,77887.66
2023-05-10T05:51:36.588Z,77898.22
2023-05-10T06:01:40.913Z,77922.91
2023-05-10T06:11:43.996Z,77938.94
2023-05-10T06:21:48.405Z,77978.09
2023-05-10T06:31:51.681Z,77974.22
2023-05-10T06:41:56.208Z,77975.50
2023-05-10T06:51:59.142Z,77983.94
2023-05-10T07:02:03.575Z,77992.09
2023-05-10T07:12:08.234Z,77978.94
2023-05-10T07:22:14.783Z,77967.81
2023-05-10T07:32:17.884Z,77957.50
2023-05-10T07:42:22.363Z,77983.81
2023-05-10T07:52:25.593Z,77975.63
2023-05-10T08:02:31.251Z,77974.50
2023-05-10T08:12:34.375Z,78012.38
2023-05-10T08:22:38.656Z,78031.69
2023-05-10T08:32:41.810Z,78079.31
2023-05-10T08:42:56.680Z,78101.19
2023-05-10T08:53:02.521Z,78146.78
2023-05-10T09:03:08.136Z,78226.97
2023-05-10T09:13:12.688Z,78322.84
2023-05-10T09:23:17.147Z,78355.03
2023-05-10T09:33:20.541Z,78372.47
2023-05-10T09:43:24.895Z,78435.09
2023-05-10T09:53:27.858Z,78411.94
2023-05-10T10:03:32.508Z,78328.63
2023-05-10T10:13:35.601Z,78350.16
2023-05-10T10:23:39.978Z,78356.66
2023-05-10T10:33:58.060Z,78380.13
2023-05-10T10:44:36.489Z,78414.72
2023-05-10T10:54:39.538Z,78453.31
2023-05-10T11:04:47.759Z,78464.09
2023-05-10T11:14:52.434Z,78437.66
2023-05-10T11:25:00.284Z,78399.03
2023-05-10T11:35:09.418Z,78381.28
2023-05-10T11:45:17.118Z,78374.38
2023-05-10T11:55:20.405Z,78229.06
2023-05-10T12:05:25.324Z,78079.44
2023-05-10T12:15:28.941Z,78045.97
2023-05-10T12:25:35.119Z,78017.25
2023-05-10T12:35:47.072Z,78009.25
2023-05-10T12:45:51.416Z,77996.25
2023-05-10T12:55:54.351Z,78005.84
2023-05-10T13:05:58.816Z,78053.88
2023-05-10T13:16:01.771Z,78115.63
2023-05-10T13:26:06.171Z,78163.69
2023-05-10T13:36:09.381Z,78162.69
2023-05-10T13:46:13.742Z,78126.19
2023-05-10T13:56:16.958Z,78072.31
2023-05-10T14:06:21.421Z,78027.69
2023-05-10T14:16:24.412Z,78024.69
2023-05-10T14:26:29.087Z,78021.84
2023-05-10T14:36:32.738Z,78026.81
2023-05-10T14:46:37.297Z,78036.13
2023-05-10T14:56:40.330Z,78063.88
2023-05-10T15:06:44.712Z,78055.69
2023-05-10T15:16:47.761Z,78060.03
2023-05-10T15:26:52.020Z,78041.28
2023-05-10T15:36:56.880Z,78020.94
2023-05-10T15:47:01.231Z,78008.69
2023-05-10T15:57:06.793Z,77991.09
2023-05-10T16:07:11.113Z,77963.38
2023-05-10T16:17:15.228Z,77937.22
2023-05-10T16:27:19.674Z,77923.50
2023-05-10T16:37:22.672Z,77921.34
2023-05-10T16:47:27.491Z,77904.34
2023-05-10T16:57:30.656Z,77921.19
2023-05-10T17:07:34.952Z,77924.34
2023-05-10T17:17:37.952Z,77936.38
2023-05-10T17:27:43.145Z,77931.06
2023-05-10T17:37:46.178Z,77953.63
2023-05-10T17:47:50.523Z,77948.38
2023-05-10T17:57:53.511Z,77957.53
2023-05-10T18:07:58.264Z,77944.78
2023-05-10T18:18:03.207Z,77952.06
2023-05-10T18:28:08.622Z,77966.38
2023-05-10T18:38:12.567Z,77956.91
2023-05-10T18:48:16.933Z,77958.66
2023-05-10T18:58:20.589Z,77920.78
2023-05-10T19:08:24.985Z,77906.63
2023-05-10T19:18:28.425Z,77887.06
2023-05-10T19:28:34.213Z,77869.22
2023-05-10T19:38:38.583Z,77877.50
2023-05-10T19:48:43.223Z,77872.19
2023-05-10T19:58:46.170Z,77870.22
2023-05-10T20:08:50.992Z,77865.94
2023-05-10T20:18:54.573Z,77865.78
2023-05-10T20:28:58.977Z,77860.63
2023-05-10T20:39:01.880Z,77851.66
2023-05-10T20:49:06.231Z,77848.06
2023-05-10T20:59:09.373Z,77844.06
2023-05-10T21:09:13.680Z,77848.22
2023-05-10T21:19:17.324Z,77852.06
2023-05-10T21:29:21.611Z,77854.38
2023-05-10T21:39:24.531Z,77837.78
2023-05-10T21:49:28.941Z,77837.34
2023-05-10T21:59:31.913Z,77857.63
2023-05-10T22:09:36.274Z,77857.78
2023-05-10T22:19:39.223Z,77853.78
2023-05-10T22:29:43.515Z,77844.75
2023-05-10T22:39:46.891Z,77861.66
2023-05-10T22:49:51.143Z,77848.47
2023-05-10T22:59:54.246Z,77848.78
2023-05-10T23:09:58.661Z,77840.75
2023-05-10T23:20:01.600Z,77843.19
2023-05-10T23:30:07.187Z,77850.38
2023-05-10T23:40:11.052Z,77847.34
2023-05-10T23:50:15.703Z,77836.19
